createdAt,value
2022-11-22T00:00:30.849Z,5.55
2022-11-22T00:05:08.974Z,6.00
2022-11-22T00:08:50.709Z,4.38
2022-11-22T00:12:52.500Z,7.05
2022-11-22T00:16:34.696Z,7.63
2022-11-22T00:20:19.003Z,5.00
2022-11-22T00:24:21.574Z,6.10
2022-11-22T00:28:03.358Z,3.13
2022-11-22T00:31:48.278Z,7.97
2022-11-22T00:35:29.966Z,10.10
2022-11-22T00:39:11.847Z,5.15
2022-11-22T00:43:13.619Z,9.77
2022-11-22T00:46:55.401Z,4.38
2022-11-22T00:50:37.108Z,4.97
2022-11-22T00:54:19.961Z,6.07
2022-11-22T00:58:01.634Z,4.00
2022-11-22T01:01:45.518Z,4.65
2022-11-22T01:05:27.302Z,6.40
2022-11-22T01:09:09.019Z,7.13
2022-11-22T01:12:50.890Z,6.75
2022-11-22T01:16:32.581Z,3.03
2022-11-22T01:20:15.537Z,5.50
2022-11-22T01:23:57.489Z,5.43
2022-11-22T01:27:39.171Z,6.78
2022-11-22T01:31:21.997Z,5.38
2022-11-22T01:35:03.882Z,4.53
2022-11-22T01:38:45.559Z,5.95
2022-11-22T01:42:49.128Z,6.55
2022-11-22T01:46:34.805Z,4.13
2022-11-22T01:50:16.827Z,3.85
2022-11-22T01:54:02.911Z,6.70
2022-11-22T01:57:44.638Z,4.95
2022-11-22T02:01:29.665Z,6.60
2022-11-22T02:05:13.058Z,4.28
2022-11-22T02:09:01.847Z,7.60
2022-11-22T02:12:44.812Z,6.05
2022-11-22T02:16:26.495Z,11.10
2022-11-22T02:20:08.770Z,7.68
2022-11-22T02:24:46.914Z,7.28
2022-11-22T02:28:30.067Z,7.40
2022-11-22T02:32:11.849Z,5.40
2022-11-22T02:35:53.545Z,2.63
2022-11-22T02:39:35.236Z,3.83
2022-11-22T02:43:24.481Z,5.63
2022-11-22T02:47:06.192Z,3.63
2022-11-22T02:50:47.911Z,3.80
2022-11-22T02:54:50.625Z,4.90
2022-11-22T02:58:32.825Z,3.03
2022-11-22T03:02:53.113Z,4.68
2022-11-22T03:06:34.802Z,3.88
2022-11-22T03:10:16.675Z,5.63
2022-11-22T03:14:17.363Z,3.20
2022-11-22T03:18:00.484Z,5.55
2022-11-22T03:22:22.023Z,1.92
2022-11-22T03:26:10.869Z,4.63
2022-11-22T03:29:52.574Z,4.15
2022-11-22T03:33:55.812Z,3.05
2022-11-22T03:37:37.561Z,4.50
2022-11-22T03:41:40.535Z,3.22
2022-11-22T03:45:22.251Z,4.57
2022-11-22T03:49:03.978Z,2.53
2022-11-22T03:53:42.378Z,3.65
2022-11-22T03:57:24.101Z,4.00
2022-11-22T04:01:05.861Z,6.60
2022-11-22T04:04:47.637Z,4.60
2022-11-22T04:08:29.345Z,2.70
2022-11-22T04:13:07.708Z,3.85
2022-11-22T04:16:49.471Z,4.10
2022-11-22T04:20:50.114Z,3.90
2022-11-22T04:24:50.454Z,4.63
2022-11-22T04:28:53.995Z,2.35
2022-11-22T04:32:59.894Z,3.88
2022-11-22T04:36:41.622Z,2.10
2022-11-22T04:40:23.329Z,1.77
2022-11-22T04:44:25.466Z,4.60
2022-11-22T04:48:07.205Z,4.47
2022-11-22T04:52:45.303Z,5.63
2022-11-22T04:56:27.006Z,4.68
2022-11-22T05:00:09.638Z,5.45
2022-11-22T05:03:51.584Z,3.67
2022-11-22T05:07:36.385Z,5.20
2022-11-22T05:11:18.428Z,4.63
2022-11-22T05:15:00.156Z,4.95
2022-11-22T05:18:42.052Z,2.78
2022-11-22T05:22:45.113Z,2.60
2022-11-22T05:26:28.125Z,1.92
2022-11-22T05:30:10.677Z,4.63
2022-11-22T05:34:16.249Z,4.50
2022-11-22T05:37:58.264Z,5.72
2022-11-22T05:42:01.946Z,4.72
2022-11-22T05:45:43.614Z,3.88
2022-11-22T05:49:25.298Z,3.35
2022-11-22T05:53:09.246Z,6.30
2022-11-22T05:56:51.009Z,4.97
2022-11-22T06:00:32.725Z,4.97
2022-11-22T06:04:52.309Z,3.75
2022-11-22T06:08:35.577Z,9.10
2022-11-22T06:12:18.643Z,5.20
2022-11-22T06:16:00.565Z,5.17
2022-11-22T06:19:42.264Z,4.47
2022-11-22T06:24:20.306Z,5.72
2022-11-22T06:28:01.981Z,5.85
2022-11-22T06:32:04.268Z,3.50
2022-11-22T06:35:46.061Z,3.67
2022-11-22T06:39:28.105Z,4.30
2022-11-22T06:43:11.377Z,5.18
2022-11-22T06:46:53.373Z,3.25
2022-11-22T06:50:35.095Z,2.45
2022-11-22T06:54:16.969Z,6.55
2022-11-22T06:57:58.665Z,6.03
2022-11-22T07:02:06.471Z,3.25
2022-11-22T07:05:51.950Z,6.15
2022-11-22T07:09:33.734Z,3.75
2022-11-22T07:13:53.741Z,3.38
2022-11-22T07:17:35.852Z,4.22
2022-11-22T07:21:19.521Z,5.05
2022-11-22T07:25:01.268Z,4.40
2022-11-22T07:28:43.232Z,3.63
2022-11-22T07:32:48.872Z,5.63
2022-11-22T07:36:31.066Z,6.25
2022-11-22T07:40:13.355Z,7.68
2022-11-22T07:43:56.269Z,3.70
2022-11-22T07:47:38.015Z,5.93
2022-11-22T07:51:59.499Z,2.72
2022-11-22T07:55:41.195Z,4.25
2022-11-22T07:59:22.929Z,3.38
2022-11-22T08:03:29.195Z,4.13
2022-11-22T08:07:11.639Z,3.95
2022-11-22T08:10:53.588Z,2.00
2022-11-22T08:14:35.626Z,2.47
2022-11-22T08:18:17.391Z,3.97
2022-11-22T08:22:00.273Z,2.83
2022-11-22T08:25:42.070Z,2.13
2022-11-22T08:29:23.786Z,2.10
2022-11-22T08:33:07.318Z,4.75
2022-11-22T08:36:49.304Z,3.20
2022-11-22T08:40:30.992Z,2.47
2022-11-22T08:44:51.221Z,5.25
2022-11-22T08:48:34.098Z,5.32
2022-11-22T08:52:17.998Z,6.87
2022-11-22T08:59:42.130Z,5.88
2022-11-22T09:04:21.713Z,8.98
2022-11-22T09:12:07.871Z,13.93
2022-11-22T09:15:49.598Z,12.20
2022-11-22T09:19:31.605Z,11.63
2022-11-22T09:23:34.873Z,9.55
2022-11-22T09:27:16.552Z,10.32
2022-11-22T09:31:04.507Z,8.88
2022-11-22T09:34:48.379Z,10.50
2022-11-22T09:38:30.424Z,7.03
2022-11-22T09:43:00.756Z,7.80
2022-11-22T09:46:59.368Z,10.80
2022-11-22T09:50:50.518Z,11.68
2022-11-22T09:54:42.466Z,10.57
2022-11-22T09:58:38.791Z,11.13
2022-11-22T10:02:25.595Z,9.57
2022-11-22T10:06:10.869Z,12.50
2022-11-22T10:10:17.725Z,9.43
2022-11-22T10:14:02.402Z,11.43
2022-11-22T10:17:59.319Z,11.88
2022-11-22T10:21:42.242Z,11.75
2022-11-22T10:25:40.541Z,12.40
2022-11-22T10:29:25.595Z,9.85
2022-11-22T10:33:22.297Z,14.52
2022-11-22T10:37:22.667Z,11.25
2022-11-22T10:41:19.432Z,9.65
2022-11-22T10:45:15.302Z,11.63
2022-11-22T10:49:04.745Z,14.88
2022-11-22T10:53:27.198Z,12.40
2022-11-22T10:57:19.123Z,6.78
2022-11-22T11:01:30.030Z,7.85
2022-11-22T11:05:13.989Z,9.68
2022-11-22T11:09:54.850Z,8.40
2022-11-22T11:13:29.974Z,9.27
2022-11-22T11:17:16.592Z,10.52
2022-11-22T11:20:58.578Z,14.95
2022-11-22T11:24:40.765Z,8.63
2022-11-22T11:28:27.283Z,7.13
2022-11-22T11:32:20.259Z,10.43
2022-11-22T11:36:23.176Z,12.93
2022-11-22T11:40:05.782Z,9.88
2022-11-22T11:44:10.444Z,9.13
2022-11-22T11:47:52.231Z,6.45
2022-11-22T11:51:43.908Z,7.18
2022-11-22T11:55:25.621Z,8.13
2022-11-22T11:59:12.191Z,4.50
2022-11-22T12:03:00.922Z,7.97
2022-11-22T12:06:42.604Z,8.63
2022-11-22T12:10:46.012Z,6.18
2022-11-22T12:14:48.744Z,9.20
2022-11-22T12:18:52.844Z,4.55
2022-11-22T12:23:12.308Z,7.68
2022-11-22T12:26:55.652Z,8.25
2022-11-22T12:30:37.990Z,5.95
2022-11-22T12:34:33.983Z,5.18
2022-11-22T12:38:21.234Z,6.20
2022-11-22T12:42:09.394Z,9.40
2022-11-22T12:46:00.477Z,8.05
2022-11-22T12:49:44.684Z,5.18
2022-11-22T12:53:45.231Z,5.57
2022-11-22T12:57:54.885Z,6.28
2022-11-22T13:01:46.569Z,6.43
2022-11-22T13:05:48.374Z,9.15
2022-11-22T13:09:42.737Z,6.03
2022-11-22T13:13:29.476Z,6.50
2022-11-22T13:17:12.141Z,18.50
2022-11-22T13:21:14.409Z,9.32
2022-11-22T13:25:31.320Z,13.65
2022-11-22T13:29:32.109Z,10.55
2022-11-22T13:33:25.601Z,14.98
2022-11-22T13:37:12.225Z,10.45
2022-11-22T13:40:53.932Z,13.63
2022-11-22T13:44:39.318Z,8.20
2022-11-22T13:48:42.361Z,13.15
2022-11-22T13:52:44.891Z,11.55
2022-11-22T13:56:26.569Z,10.98
2022-11-22T14:00:14.215Z,12.77
2022-11-22T14:04:19.807Z,7.93
2022-11-22T14:08:02.047Z,11.23
2022-11-22T14:12:11.183Z,8.27
2022-11-22T14:16:20.355Z,8.60
2022-11-22T14:20:19.797Z,10.10
2022-11-22T14:24:24.012Z,7.22
2022-11-22T14:28:42.564Z,7.85
2022-11-22T14:33:03.266Z,5.65
2022-11-22T14:36:45.910Z,8.07
2022-11-22T14:40:46.241Z,10.95
2022-11-22T14:44:46.710Z,4.53
2022-11-22T14:48:33.901Z,6.50
2022-11-22T14:52:21.760Z,8.43
2022-11-22T14:56:12.426Z,9.40
2022-11-22T15:00:12.807Z,5.53
2022-11-22T15:09:10.684Z,12.50
2022-11-22T15:09:16.274Z,9.13
2022-11-22T15:12:56.274Z,14.52
2022-11-22T15:57:37.640Z,11.07
2022-11-22T16:01:21.789Z,12.60
2022-11-22T16:06:05.813Z,15.63
2022-11-22T16:09:06.801Z,8.70
2022-11-22T16:12:51.421Z,8.57
2022-11-22T16:16:33.989Z,5.65
2022-11-22T16:20:29.843Z,9.65
2022-11-22T16:24:17.618Z,16.00
2022-11-22T16:27:59.935Z,14.52
2022-11-22T16:31:41.778Z,12.80
2022-11-22T16:35:29.465Z,8.20
2022-11-22T16:39:11.590Z,9.13
2022-11-22T16:42:55.521Z,6.32
2022-11-22T16:46:37.195Z,7.90
2022-11-22T16:50:18.897Z,6.15
2022-11-22T16:54:19.685Z,11.05
2022-11-22T16:58:01.383Z,9.32
2022-11-22T17:01:45.271Z,7.78
2022-11-22T17:05:27.008Z,8.38
2022-11-22T17:09:09.087Z,10.88
2022-11-22T17:13:28.071Z,9.32
2022-11-22T17:17:11.871Z,16.38
2022-11-22T17:24:35.455Z,17.83
2022-11-22T17:28:17.173Z,21.52
2022-11-22T17:32:19.042Z,22.38
2022-11-22T17:36:00.749Z,17.15
2022-11-22T17:39:42.465Z,19.98
2022-11-22T17:44:01.917Z,15.32
2022-11-22T17:47:43.614Z,10.20
2022-11-22T17:51:27.526Z,22.98
2022-11-22T17:55:14.231Z,13.75
2022-11-22T17:58:56.258Z,16.40
2022-11-22T18:02:38.183Z,10.32
2022-11-22T18:10:27.297Z,8.68
2022-11-22T18:14:11.181Z,10.20
2022-11-22T18:17:53.363Z,11.30
2022-11-22T18:21:37.210Z,8.45
2022-11-22T18:25:18.920Z,6.47
2022-11-22T18:33:04.158Z,13.40
2022-11-22T18:36:56.372Z,26.02
2022-11-22T18:40:46.306Z,17.10
2022-11-22T18:44:29.336Z,16.63
2022-11-22T18:48:11.835Z,12.20
2022-11-22T18:51:56.008Z,9.80
2022-11-22T18:55:37.740Z,11.20
2022-11-22T18:59:19.556Z,9.25
2022-11-22T19:03:21.394Z,6.68
2022-11-22T19:07:03.286Z,7.70
2022-11-22T19:10:45.419Z,6.75
2022-11-22T19:14:31.435Z,10.82
2022-11-22T19:18:13.387Z,11.55
2022-11-22T19:21:57.457Z,7.78
2022-11-22T19:25:40.088Z,16.63
2022-11-22T19:29:21.958Z,18.48
2022-11-22T19:33:04.232Z,13.35
2022-11-22T19:36:45.927Z,9.55
2022-11-22T19:40:27.627Z,8.95
2022-11-22T19:44:11.617Z,14.15
2022-11-22T19:47:53.376Z,10.82
2022-11-22T19:52:31.537Z,10.30
2022-11-22T19:56:17.626Z,12.63
2022-11-22T20:00:00.290Z,17.10
2022-11-22T20:03:45.560Z,20.50
2022-11-22T20:07:29.813Z,18.25
2022-11-22T20:11:13.566Z,19.25
2022-11-22T20:18:37.015Z,12.60
2022-11-22T20:22:21.082Z,20.08
2022-11-22T20:26:03.157Z,18.02
2022-11-22T20:29:44.910Z,23.17
2022-11-22T20:33:27.705Z,20.88
2022-11-22T20:37:09.506Z,11.80
2022-11-22T20:40:56.292Z,6.80
2022-11-22T20:44:43.225Z,8.68
2022-11-22T20:48:24.953Z,8.30
2022-11-22T20:52:08.936Z,10.68
2022-11-22T20:55:51.018Z,9.00
2022-11-22T20:59:32.817Z,9.25
2022-11-22T21:03:14.921Z,8.18
2022-11-22T21:06:57.746Z,9.52
2022-11-22T21:10:39.461Z,11.03
2022-11-22T21:14:21.968Z,7.13
2022-11-22T21:22:09.707Z,9.18
2022-11-22T21:25:52.574Z,9.07
2022-11-22T21:29:34.403Z,12.43
2022-11-22T21:33:35.439Z,8.30
2022-11-22T21:37:17.751Z,11.43
2022-11-22T21:41:23.937Z,9.13
2022-11-22T21:45:02.243Z,7.10
2022-11-22T21:48:43.962Z,7.65
2022-11-22T21:52:27.881Z,7.43
2022-11-22T21:56:09.826Z,10.07
2022-11-22T21:59:51.621Z,6.65
2022-11-22T22:03:34.535Z,7.65
2022-11-22T22:07:36.669Z,7.30
2022-11-22T22:12:23.011Z,6.55
2022-11-22T22:16:06.833Z,5.40
2022-11-22T22:19:49.527Z,7.38
2022-11-22T22:23:36.301Z,5.03
2022-11-22T22:27:18.065Z,6.00
2022-11-22T22:31:06.760Z,5.88
2022-11-22T22:34:48.429Z,9.68
2022-11-22T22:38:30.888Z,4.45
2022-11-22T22:42:15.242Z,4.50
2022-11-22T22:46:06.069Z,5.18
2022-11-22T22:49:48.277Z,6.05
2022-11-22T22:53:32.221Z,4.68
2022-11-22T22:57:13.932Z,5.40
2022-11-22T23:00:55.689Z,7.55
2022-11-22T23:04:40.662Z,8.40
2022-11-22T23:08:22.381Z,5.03
2022-11-22T23:12:10.534Z,4.82
2022-11-22T23:15:58.177Z,9.05
2022-11-22T23:19:40.324Z,8.93
2022-11-22T23:23:22.260Z,11.98
2022-11-22T23:27:04.063Z,7.43
2022-11-22T23:30:45.830Z,9.45
2022-11-22T23:34:48.501Z,7.50
2022-11-22T23:38:30.214Z,11.68
2022-11-22T23:42:51.649Z,8.38
2022-11-22T23:46:33.505Z,7.63
2022-11-22T23:50:15.461Z,5.65
2022-11-22T23:53:58.642Z,7.55
2022-11-22T23:57:40.350Z,5.00
